Terminal Aerodrome Forecast
Issued by NWS

Home | Current Version | Previous Version | Text Only | Print | Product List | Glossary On
Versions: 1 2 3 4 5 6 7 8 9 10 11 12 13 14
000
FTUS45 KRIW 130500
TAFLND
TAF
KLND 130522Z 1306/1406 25007KT P6SM SCT110
     FM130900 VRB04KT P6SM FEW120
     FM132000 04007KT P6SM SCT090 BKN130
     FM132300 02008KT P6SM VCSH BKN090=

USA.gov is the U.S. government's official web portal to all federal, state and local government web resources and services.